Grizzly Flats, California
Current Conditions -  °F | °C
As of 8:35 AM on Saturday 20 Dec 2014 (Local Time) from KPVF Reporting Station
Overcast Overcast  
Wind Chill: 42°   Ceiling: 900
Heat Index: 46°   Visibility: 9mi
Dew Point: 46°   Wind: 8mph
Humidity: 100%   Direction: 170°S
Pressure: 30.2"   Gusts: NA
Location:  38.63°N, 120.55°W
Report Text: KPVF 201635Z AUTO 17007KT 9SM OVC009 08/08 A3020 RMK AO1
Loading
Personal Weather Stations






























Interactive Weather Map New forecast layout! Learn more

10-Day Weather Forecast

Advertisements
Track Severe Weather on mobile